createdAt,value
2023-01-13T00:01:39.152Z,3.47
2023-01-13T00:04:06.150Z,3.50
2023-01-13T00:06:32.964Z,3.90
2023-01-13T00:08:59.868Z,5.90
2023-01-13T00:11:26.664Z,4.00
2023-01-13T00:13:53.893Z,4.07
2023-01-13T00:16:21.371Z,3.72
2023-01-13T00:18:49.188Z,3.35
2023-01-13T00:21:18.405Z,4.30
2023-01-13T00:23:06.075Z,0
2023-01-13T00:23:49.296Z,3.95
2023-01-13T00:29:06.721Z,3.58
2023-01-13T00:31:33.579Z,4.30
2023-01-13T00:34:01.330Z,3.83
2023-01-13T00:36:29.012Z,3.10
2023-01-13T00:38:55.817Z,3.30
2023-01-13T00:39:11.887Z,0
2023-01-13T00:44:10.777Z,3.63
2023-01-13T00:49:24.466Z,3.92
2023-01-13T00:51:51.343Z,3.53
2023-01-13T00:54:18.181Z,4.07
2023-01-13T00:56:45.053Z,5.10
2023-01-13T00:59:13.363Z,5.80
2023-01-13T01:01:41.225Z,4.93
2023-01-13T01:04:08.230Z,4.75
2023-01-13T01:06:35.097Z,3.97
2023-01-13T01:09:02.390Z,4.10
2023-01-13T01:11:31.473Z,4.50
2023-01-13T01:14:01.161Z,3.95
2023-01-13T01:16:30.408Z,3.63
2023-01-13T01:18:57.571Z,4.70
2023-01-13T01:21:26.092Z,5.70
2023-01-13T01:23:53.367Z,4.60
2023-01-13T01:26:23.238Z,6.20
2023-01-13T01:31:37.529Z,3.80
2023-01-13T01:36:51.022Z,4.55
2023-01-13T01:39:17.797Z,6.30
2023-01-13T01:41:44.623Z,4.00
2023-01-13T01:47:31.108Z,4.70
2023-01-13T01:52:50.297Z,6.15
2023-01-13T01:55:22.654Z,4.57
2023-01-13T01:57:57.847Z,5.30
2023-01-13T02:00:27.065Z,3.85
2023-01-13T02:02:54.416Z,5.50
2023-01-13T02:05:22.312Z,3.60
2023-01-13T02:10:41.701Z,3.50
2023-01-13T02:16:17.411Z,3.50
2023-01-13T02:18:59.007Z,3.78
2023-01-13T02:21:47.308Z,4.43
2023-01-13T02:27:44.089Z,7.03
2023-01-13T02:30:26.978Z,4.40
2023-01-13T02:33:22.922Z,5.30
2023-01-13T02:36:04.233Z,10.43
2023-01-13T02:38:56.244Z,9.90
2023-01-13T02:41:55.286Z,9.10
2023-01-13T02:44:28.566Z,12.77
2023-01-13T02:47:13.899Z,9.90
2023-01-13T02:49:54.244Z,10.33
2023-01-13T02:52:25.028Z,13.85
2023-01-13T02:54:57.268Z,7.38
2023-01-13T02:57:26.455Z,10.98
2023-01-13T02:59:55.237Z,10.33
2023-01-13T03:02:23.649Z,9.10
2023-01-13T03:11:08.598Z,7.60
2023-01-13T03:13:55.055Z,8.02
2023-01-13T03:16:43.122Z,7.78
2023-01-13T03:22:37.915Z,6.75
2023-01-13T03:25:15.988Z,6.80
2023-01-13T03:27:57.685Z,7.55
2023-01-13T03:30:32.715Z,6.38
2023-01-13T03:33:05.803Z,4.38
2023-01-13T03:35:40.574Z,5.00
2023-01-13T03:38:17.291Z,7.20
2023-01-13T03:40:53.655Z,7.40
2023-01-13T03:43:29.295Z,7.30
2023-01-13T03:48:51.743Z,7.95
2023-01-13T03:54:02.832Z,11.13
2023-01-13T03:59:33.169Z,10.02
2023-01-13T04:02:06.141Z,8.80
2023-01-13T04:04:58.109Z,9.48
2023-01-13T04:07:27.587Z,9.98
2023-01-13T04:10:01.723Z,9.73
2023-01-13T04:12:36.128Z,9.77
2023-01-13T04:15:03.028Z,11.17
2023-01-13T04:17:29.787Z,9.77
2023-01-13T04:19:56.574Z,8.38
2023-01-13T04:22:23.314Z,11.17
2023-01-13T04:24:50.031Z,9.20
2023-01-13T04:27:16.818Z,10.32
2023-01-13T04:29:43.585Z,12.30
2023-01-13T04:32:10.301Z,10.50
2023-01-13T04:37:23.717Z,12.15
2023-01-13T04:42:37.155Z,16.40
2023-01-13T04:45:04.190Z,13.88
2023-01-13T04:47:30.985Z,11.30
2023-01-13T04:49:57.733Z,12.73
2023-01-13T04:52:24.482Z,12.27
2023-01-13T04:54:51.278Z,14.17
2023-01-13T04:57:18.019Z,12.35
2023-01-13T04:59:44.784Z,12.38
2023-01-13T05:02:11.557Z,14.10
2023-01-13T05:04:38.391Z,11.65
2023-01-13T05:07:05.164Z,10.15
2023-01-13T05:09:32.021Z,11.93
2023-01-13T05:11:58.769Z,16.05
2023-01-13T05:14:25.631Z,15.18
2023-01-13T05:16:54.617Z,15.60
2023-01-13T05:19:21.374Z,14.45
2023-01-13T05:21:48.139Z,14.90
2023-01-13T05:27:01.556Z,13.48
2023-01-13T05:32:14.975Z,13.73
2023-01-13T05:34:41.756Z,15.38
2023-01-13T05:37:08.543Z,14.75
2023-01-13T05:39:35.283Z,17.45
2023-01-13T05:42:02.040Z,17.27
2023-01-13T05:44:28.854Z,17.48
2023-01-13T05:46:55.619Z,16.35
2023-01-13T05:49:22.412Z,20.35
2023-01-13T05:51:49.154Z,13.32
2023-01-13T05:54:15.905Z,17.85
2023-01-13T05:56:42.638Z,16.23
2023-01-13T05:59:09.454Z,16.35
2023-01-13T06:01:36.315Z,22.70
2023-01-13T06:04:03.324Z,18.90
2023-01-13T06:06:30.099Z,16.30
2023-01-13T06:08:56.860Z,15.32
2023-01-13T06:11:23.618Z,18.73
2023-01-13T06:16:37.090Z,18.30
2023-01-13T06:21:50.733Z,16.02
2023-01-13T06:27:06.428Z,24.08
2023-01-13T06:32:25.659Z,17.30
2023-01-13T06:34:57.843Z,19.83
2023-01-13T06:37:25.914Z,18.60
2023-01-13T06:39:55.436Z,18.90
2023-01-13T06:42:22.331Z,18.73
2023-01-13T06:44:49.936Z,30.52
2023-01-13T06:47:17.463Z,21.60
2023-01-13T06:52:31.031Z,19.58
2023-01-13T06:57:56.301Z,21.73
2023-01-13T07:00:24.793Z,15.35
2023-01-13T07:02:52.104Z,14.90
2023-01-13T07:05:19.891Z,14.40
2023-01-13T07:07:46.700Z,20.83
2023-01-13T07:10:15.036Z,17.27
2023-01-13T07:12:41.806Z,18.52
2023-01-13T07:15:09.013Z,16.93
2023-01-13T07:17:35.751Z,18.93
2023-01-13T07:20:02.575Z,16.23
2023-01-13T07:22:29.412Z,19.27
2023-01-13T07:24:56.160Z,17.03
2023-01-13T07:27:22.968Z,13.95
2023-01-13T07:32:36.455Z,12.25
2023-01-13T07:37:49.970Z,14.27
2023-01-13T07:40:17.051Z,17.02
2023-01-13T07:42:43.803Z,15.90
2023-01-13T07:45:12.410Z,12.98
2023-01-13T07:47:40.321Z,15.38
2023-01-13T07:50:08.547Z,15.65
2023-01-13T07:52:35.316Z,13.77
2023-01-13T07:55:02.061Z,13.00
2023-01-13T07:57:29.048Z,15.43
2023-01-13T07:59:55.804Z,15.23
2023-01-13T08:02:22.942Z,13.77
2023-01-13T08:04:49.838Z,15.35
2023-01-13T08:07:16.630Z,13.77
2023-01-13T08:09:43.443Z,17.00
2023-01-13T08:12:10.227Z,18.15
2023-01-13T08:14:37.101Z,15.95
2023-01-13T08:17:04.052Z,14.35
2023-01-13T08:22:17.476Z,13.13
2023-01-13T08:24:44.243Z,13.68
2023-01-13T08:27:10.976Z,14.57
2023-01-13T08:29:37.713Z,18.40
2023-01-13T08:32:04.615Z,12.52
2023-01-13T08:34:31.370Z,19.13
2023-01-13T08:36:58.159Z,16.77
2023-01-13T08:39:25.001Z,13.73
2023-01-13T08:41:51.774Z,16.70
2023-01-13T08:44:18.509Z,16.90
2023-01-13T08:46:45.539Z,17.50
2023-01-13T08:49:12.465Z,18.08
2023-01-13T08:51:39.232Z,16.35
2023-01-13T08:54:05.998Z,21.15
2023-01-13T08:56:35.315Z,19.70
2023-01-13T08:59:02.747Z,18.00
2023-01-13T09:01:30.105Z,18.23
2023-01-13T09:03:57.027Z,18.70
2023-01-13T09:06:23.909Z,17.85
2023-01-13T09:08:50.654Z,15.05
2023-01-13T09:11:20.407Z,21.20
2023-01-13T09:13:47.190Z,16.27
2023-01-13T09:16:13.979Z,20.27
2023-01-13T09:21:27.476Z,21.05
2023-01-13T09:23:54.284Z,15.93
2023-01-13T09:26:21.846Z,17.52
2023-01-13T09:28:48.651Z,18.65
2023-01-13T09:31:15.488Z,19.95
2023-01-13T09:33:42.332Z,21.38
2023-01-13T09:36:09.133Z,17.90
2023-01-13T09:38:35.953Z,16.73
2023-01-13T09:41:02.820Z,17.75
2023-01-13T09:43:39.086Z,19.13
2023-01-13T09:46:14.163Z,21.25
2023-01-13T09:48:40.971Z,21.85
2023-01-13T09:51:17.423Z,20.73
2023-01-13T09:53:50.611Z,19.30
2023-01-13T09:56:17.501Z,17.90
2023-01-13T09:58:46.605Z,20.02
2023-01-13T10:08:48.017Z,18.30
2023-01-13T10:11:19.239Z,21.05
2023-01-13T10:17:04.553Z,16.75
2023-01-13T10:19:39.935Z,18.58
2023-01-13T10:22:32.621Z,17.95
2023-01-13T10:25:36.327Z,17.95
2023-01-13T10:28:11.347Z,16.70
2023-01-13T10:33:30.588Z,13.43
2023-01-13T10:36:12.469Z,18.17
2023-01-13T10:38:41.710Z,16.10
2023-01-13T10:44:17.732Z,13.90
2023-01-13T10:46:55.789Z,13.50
2023-01-13T10:49:36.129Z,14.80
2023-01-13T10:52:23.610Z,15.05
2023-01-13T10:57:41.337Z,15.35
2023-01-13T11:00:26.871Z,16.05
2023-01-13T11:02:30.509Z,0
2023-01-13T11:03:23.789Z,15.02
2023-01-13T11:05:56.423Z,15.50
2023-01-13T11:08:29.370Z,15.27
2023-01-13T11:13:45.713Z,11.63
2023-01-13T11:16:18.083Z,12.18
2023-01-13T11:18:58.954Z,13.75
2023-01-13T11:21:33.754Z,14.32
2023-01-13T11:24:22.602Z,14.93
2023-01-13T11:27:30.588Z,11.95
2023-01-13T11:33:08.749Z,12.68
2023-01-13T11:35:45.110Z,11.25
2023-01-13T11:41:57.461Z,12.75
2023-01-13T11:44:36.686Z,11.82
2023-01-13T11:49:50.300Z,12.15
2023-01-13T11:55:37.513Z,12.40
2023-01-13T11:58:16.348Z,11.40
2023-01-13T11:58:53.812Z,0
2023-01-13T12:07:21.429Z,15.30
2023-01-13T12:10:15.428Z,12.45
2023-01-13T12:12:55.524Z,12.85
2023-01-13T12:15:22.377Z,12.65
2023-01-13T12:18:12.048Z,12.40
2023-01-13T12:21:17.271Z,11.32
2023-01-13T12:23:50.427Z,10.75
2023-01-13T12:26:17.662Z,11.85
2023-01-13T12:28:50.322Z,9.80
2023-01-13T12:31:19.247Z,11.43
2023-01-13T12:34:07.317Z,8.43
2023-01-13T12:36:58.349Z,12.77
2023-01-13T12:39:41.973Z,10.43
2023-01-13T12:42:27.250Z,11.07
2023-01-13T12:45:12.495Z,11.52
2023-01-13T12:50:26.999Z,12.68
2023-01-13T12:55:42.722Z,10.98
2023-01-13T13:01:00.814Z,12.80
2023-01-13T13:03:34.867Z,10.73
2023-01-13T13:06:06.981Z,12.20
2023-01-13T13:09:15.209Z,14.27
2023-01-13T13:11:45.044Z,11.65
2023-01-13T13:14:13.820Z,16.05
2023-01-13T13:15:07.062Z,0
2023-01-13T13:16:50.219Z,13.50
2023-01-13T13:19:20.035Z,12.15
2023-01-13T13:22:14.561Z,14.02
2023-01-13T13:27:45.503Z,12.73
2023-01-13T13:30:28.947Z,12.68
2023-01-13T13:33:19.490Z,11.80
2023-01-13T13:36:04.917Z,11.25
2023-01-13T13:38:49.103Z,10.18
2023-01-13T13:41:21.944Z,16.08
2023-01-13T13:43:49.120Z,21.65
2023-01-13T13:46:34.676Z,13.70
2023-01-13T13:52:05.432Z,14.00
2023-01-13T13:54:32.699Z,15.10
2023-01-13T13:56:59.528Z,12.25
2023-01-13T13:59:28.552Z,15.25
2023-01-13T14:01:58.589Z,12.30
2023-01-13T14:04:25.554Z,14.63
2023-01-13T14:09:51.095Z,10.68
2023-01-13T14:18:21.222Z,10.88
2023-01-13T14:20:55.076Z,10.45
2023-01-13T14:23:30.926Z,12.65
2023-01-13T14:28:54.253Z,10.30
2023-01-13T14:34:32.633Z,11.93
2023-01-13T14:36:57.543Z,11.65
2023-01-13T14:39:26.813Z,10.82
2023-01-13T14:41:53.683Z,11.82
2023-01-13T14:44:30.733Z,12.35
2023-01-13T14:47:04.029Z,11.80
2023-01-13T14:49:33.418Z,9.98
2023-01-13T14:52:20.023Z,10.02
2023-01-13T14:55:11.857Z,10.33
2023-01-13T14:57:40.011Z,11.68
2023-01-13T15:00:15.564Z,9.70
2023-01-13T15:02:43.605Z,9.37
2023-01-13T15:08:12.423Z,9.15
2023-01-13T15:10:51.501Z,11.20
2023-01-13T15:13:41.235Z,12.18
2023-01-13T15:16:22.590Z,13.13
2023-01-13T15:18:49.413Z,13.00
2023-01-13T15:21:17.047Z,11.00
2023-01-13T15:23:44.483Z,13.35
2023-01-13T15:29:27.148Z,14.40
2023-01-13T15:34:40.598Z,13.48
2023-01-13T15:37:09.294Z,13.13
2023-01-13T15:39:36.153Z,12.85
2023-01-13T15:42:02.932Z,14.48
2023-01-13T15:44:29.711Z,10.65
2023-01-13T15:46:58.345Z,11.20
2023-01-13T15:48:59.096Z,0
2023-01-13T15:49:30.652Z,13.02
2023-01-13T15:51:57.391Z,13.10
2023-01-13T15:57:24.596Z,11.73
2023-01-13T15:59:54.307Z,11.90
2023-01-13T16:02:21.502Z,9.03
2023-01-13T16:04:48.354Z,11.20
2023-01-13T16:07:18.398Z,11.77
2023-01-13T16:09:45.836Z,11.02
2023-01-13T16:12:13.749Z,8.70
2023-01-13T16:14:40.787Z,11.52
2023-01-13T16:17:19.185Z,11.23
2023-01-13T16:22:33.467Z,10.25
2023-01-13T16:27:47.592Z,11.45
2023-01-13T16:30:30.061Z,14.27
2023-01-13T16:32:57.438Z,10.25
2023-01-13T16:35:25.393Z,13.17
2023-01-13T16:37:52.331Z,11.60
2023-01-13T16:40:31.392Z,9.65
2023-01-13T16:45:47.150Z,10.13
2023-01-13T16:50:46.767Z,12.55
2023-01-13T16:53:13.606Z,10.68
2023-01-13T16:58:28.360Z,9.10
2023-01-13T17:00:55.286Z,12.00
2023-01-13T17:03:22.151Z,14.27
2023-01-13T17:05:48.959Z,11.25
2023-01-13T17:08:17.257Z,11.98
2023-01-13T17:10:45.418Z,9.70
2023-01-13T17:13:16.369Z,11.10
2023-01-13T17:18:31.318Z,9.15
2023-01-13T17:20:58.079Z,10.47
2023-01-13T17:23:24.817Z,13.82
2023-01-13T17:25:51.603Z,11.82
2023-01-13T17:28:18.362Z,10.15
2023-01-13T17:30:45.177Z,11.82
2023-01-13T17:33:11.952Z,7.28
2023-01-13T17:35:41.537Z,10.38
2023-01-13T17:38:08.307Z,8.70
2023-01-13T17:40:36.934Z,11.40
2023-01-13T17:43:03.903Z,11.00
2023-01-13T17:45:30.687Z,12.48
2023-01-13T17:47:57.724Z,10.35
2023-01-13T17:50:25.067Z,11.35
2023-01-13T17:52:51.804Z,10.33
2023-01-13T17:55:18.649Z,11.52
2023-01-13T17:57:45.516Z,9.50
2023-01-13T18:00:12.821Z,12.57
2023-01-13T18:02:39.633Z,10.40
2023-01-13T18:05:06.655Z,12.45
2023-01-13T18:07:33.416Z,9.93
2023-01-13T18:10:00.157Z,10.40
2023-01-13T18:12:26.908Z,11.23
2023-01-13T18:14:53.644Z,12.95
2023-01-13T18:17:20.412Z,12.75
2023-01-13T18:19:47.177Z,12.00
2023-01-13T18:25:00.960Z,8.15
2023-01-13T18:30:22.497Z,8.15
2023-01-13T18:35:09.176Z,0
2023-01-13T18:35:38.823Z,8.07
2023-01-13T18:38:05.609Z,7.40
2023-01-13T18:43:19.060Z,11.98
2023-01-13T18:45:50.510Z,9.43
2023-01-13T18:48:17.312Z,9.15
2023-01-13T18:50:44.044Z,7.00
2023-01-13T18:55:57.462Z,4.97
2023-01-13T19:01:10.960Z,8.75
2023-01-13T19:06:05.397Z,7.43
2023-01-13T19:08:32.651Z,5.90
2023-01-13T19:11:08.233Z,6.40
2023-01-13T19:13:36.372Z,4.88
2023-01-13T19:16:06.996Z,5.90
2023-01-13T19:18:34.066Z,6.90
2023-01-13T19:21:05.281Z,5.78
2023-01-13T19:23:32.600Z,5.47
2023-01-13T19:26:03.802Z,4.30
2023-01-13T19:28:31.018Z,6.45
2023-01-13T19:33:48.777Z,4.73
2023-01-13T19:36:15.541Z,4.53
2023-01-13T19:38:42.309Z,5.57
2023-01-13T19:41:10.184Z,6.63
2023-01-13T19:43:37.501Z,3.90
2023-01-13T19:46:04.714Z,4.45
2023-01-13T19:48:31.452Z,4.05
2023-01-13T19:50:59.698Z,6.50
2023-01-13T19:53:27.090Z,3.70
2023-01-13T19:55:53.919Z,5.50
2023-01-13T19:58:20.928Z,4.05
2023-01-13T20:00:47.747Z,5.88
2023-01-13T20:03:20.389Z,4.77
2023-01-13T20:05:47.761Z,5.88
2023-01-13T20:08:14.535Z,6.95
2023-01-13T20:10:41.302Z,4.32
2023-01-13T20:13:08.053Z,4.87
2023-01-13T20:15:34.839Z,3.70
2023-01-13T20:18:01.565Z,3.88
2023-01-13T20:20:28.330Z,4.22
2023-01-13T20:22:55.139Z,4.10
2023-01-13T20:25:21.942Z,4.32
2023-01-13T20:27:48.974Z,4.10
2023-01-13T20:30:16.045Z,4.25
2023-01-13T20:32:43.473Z,4.03
2023-01-13T20:35:12.762Z,3.40
2023-01-13T20:37:41.232Z,4.23
2023-01-13T20:40:11.147Z,4.72
2023-01-13T20:42:37.954Z,4.03
2023-01-13T20:45:05.576Z,6.38
2023-01-13T20:47:32.432Z,6.35
2023-01-13T20:49:59.279Z,4.63
2023-01-13T20:52:26.490Z,4.20
2023-01-13T20:54:53.340Z,5.90
2023-01-13T20:57:20.154Z,5.28
2023-01-13T20:59:47.007Z,5.15
2023-01-13T21:02:16.197Z,5.20
2023-01-13T21:04:43.277Z,7.00
2023-01-13T21:07:10.566Z,6.30
2023-01-13T21:09:37.373Z,4.90
2023-01-13T21:12:04.542Z,7.05
2023-01-13T21:17:18.033Z,5.87
2023-01-13T21:22:11.453Z,6.95
2023-01-13T21:24:38.250Z,6.43
2023-01-13T21:29:31.747Z,7.13
2023-01-13T21:31:58.596Z,4.38
2023-01-13T21:37:12.061Z,5.50
2023-01-13T21:39:38.877Z,6.32
2023-01-13T21:42:05.668Z,6.45
2023-01-13T21:44:32.507Z,5.80
2023-01-13T21:46:59.480Z,5.22
2023-01-13T21:49:26.266Z,5.63
2023-01-13T21:51:53.019Z,5.60
2023-01-13T21:54:19.795Z,5.78
2023-01-13T21:56:47.926Z,6.45
2023-01-13T21:59:14.726Z,7.20
2023-01-13T22:02:02.044Z,6.07
2023-01-13T22:02:28.375Z,0
2023-01-13T22:04:28.228Z,5.00
2023-01-13T22:06:54.983Z,4.85
2023-01-13T22:09:21.722Z,6.78
2023-01-13T22:11:48.523Z,6.80
2023-01-13T22:17:01.941Z,6.70
2023-01-13T22:22:16.520Z,7.32
2023-01-13T22:24:43.493Z,7.55
2023-01-13T22:27:11.176Z,6.25
2023-01-13T22:29:37.959Z,7.70
2023-01-13T22:32:05.417Z,6.80
2023-01-13T22:34:32.854Z,6.80
2023-01-13T22:37:00.013Z,4.97
2023-01-13T22:39:27.039Z,5.88
2023-01-13T22:41:53.819Z,8.05
2023-01-13T22:44:21.315Z,4.45
2023-01-13T22:46:48.446Z,5.18
2023-01-13T22:49:16.232Z,5.28
2023-01-13T22:51:43.547Z,5.47
2023-01-13T22:54:11.074Z,6.30
2023-01-13T22:56:38.696Z,5.93
2023-01-13T22:59:07.185Z,8.02
2023-01-13T23:01:35.419Z,7.13
2023-01-13T23:04:03.116Z,7.03
2023-01-13T23:06:32.477Z,8.57
2023-01-13T23:09:00.589Z,5.15
2023-01-13T23:11:29.135Z,6.45
2023-01-13T23:14:02.010Z,7.72
2023-01-13T23:19:17.555Z,9.10
2023-01-13T23:21:44.351Z,7.25
2023-01-13T23:21:56.765Z,0
2023-01-13T23:24:11.297Z,9.77
2023-01-13T23:26:38.147Z,7.20
2023-01-13T23:29:07.995Z,10.38
2023-01-13T23:31:35.371Z,6.85
2023-01-13T23:34:02.608Z,9.10
2023-01-13T23:36:30.068Z,7.25
2023-01-13T23:36:58.435Z,0
2023-01-13T23:38:58.924Z,7.75
2023-01-13T23:41:27.691Z,7.25
2023-01-13T23:43:59.871Z,9.05
2023-01-13T23:49:17.816Z,9.98
2023-01-13T23:54:31.293Z,10.35
2023-01-13T23:56:58.124Z,6.85
2023-01-13T23:59:24.983Z,8.10
